Time;durP1;ratioP1;P1;durP2;ratioP2;P2;SDS_P1;SDS_P2;PMS_P1;PMS_P2;Temp;Humidity;BMP_temperature;BMP_pressure;BME280_temperature;BME280_humidity;BME280_pressure;Samples;Min_cycle;Max_cycle;Signal;HPM_P1;HPM_P2
2023/09/22 00:02:02;;;;;;;;;;;;;;;23.60;57.17;99299.03;5062764;28;1964;-75
2023/09/22 00:04:32;;;;;;;;;;;;;;;23.57;57.21;99295.41;5063923;28;1681;-74
2023/09/22 00:06:59;;;;;;;;;;;;;;;23.58;57.18;99291.09;5064472;28;1752;-75
2023/09/22 00:09:25;;;;;;;;;;;;;;;23.58;57.10;99290.34;5058441;28;1855;-75
2023/09/22 00:11:52;;;;;;;;;;;;;;;23.58;57.27;99301.91;5059483;28;2313;-74
2023/09/22 00:14:18;;;;;;;;;;;;;;;23.57;57.32;99309.88;5066063;28;1924;-75
2023/09/22 00:16:45;;;;;;;;;;;;;;;23.54;57.27;99308.38;5059211;28;1911;-75
2023/09/22 00:19:11;;;;;;;;;;;;;;;23.52;57.51;99307.63;5058379;28;2090;-74
2023/09/22 00:21:38;;;;;;;;;;;;;;;23.53;57.47;99312.00;5058398;28;2045;-75
2023/09/22 00:24:05;;;;;;;;;;;;;;;23.53;57.68;99312.00;5062053;28;1784;-75
2023/09/22 00:26:31;;;;;;;;;;;;;;;23.55;57.42;99318.50;5059898;28;2090;-75
2023/09/22 00:28:58;;;;;;;;;;;;;;;23.55;57.24;99312.00;5062663;28;1902;-75
2023/09/22 00:31:25;;;;;;;;;;;;;;;23.52;57.44;99316.28;5060946;28;2277;-74
2023/09/22 00:33:52;;;;;;;;;;;;;;;23.53;57.24;99314.88;5065117;28;2045;-75
2023/09/22 00:36:18;;;;;;;;;;;;;;;23.53;57.44;99317.78;5060391;28;2185;-75
2023/09/22 00:38:45;;;;;;;;;;;;;;;23.54;57.30;99313.44;5063520;28;1963;-74
2023/09/22 00:41:11;;;;;;;;;;;;;;;23.51;57.30;99304.03;5057604;28;1840;-75
2023/09/22 00:43:38;;;;;;;;;;;;;;;23.54;57.27;99316.31;5060351;28;1950;-74
2023/09/22 00:46:04;;;;;;;;;;;;;;;23.54;57.18;99319.22;5062663;28;1950;-75
2023/09/22 00:48:31;;;;;;;;;;;;;;;23.53;57.09;99323.53;5062175;28;1969;-75
2023/09/22 00:50:58;;;;;;;;;;;;;;;23.49;57.32;99323.50;5057567;28;1944;-74
2023/09/22 00:53:24;;;;;;;;;;;;;;;23.52;57.46;99310.53;5061699;28;1872;-74
2023/09/22 00:55:51;;;;;;;;;;;;;;;23.56;57.33;99316.34;5060848;28;1730;-75
2023/09/22 00:58:18;;;;;;;;;;;;;;;23.54;57.26;99310.53;5061100;28;1914;-75
2023/09/22 01:00:47;;;;;;;;;;;;;;;23.53;57.23;99306.22;5063517;28;1967;-75
2023/09/22 01:03:14;;;;;;;;;;;;;;;23.53;57.27;99323.53;5065107;28;2031;-75
2023/09/22 01:05:40;;;;;;;;;;;;;;;23.53;57.27;99320.66;5063472;28;1785;-75
2023/09/22 01:08:06;;;;;;;;;;;;;;;23.53;57.08;99327.16;5066369;28;1885;-75
2023/09/22 01:10:36;;;;;;;;;;;;;;;23.57;57.21;99332.22;5064130;28;2400;-75
2023/09/22 01:13:04;;;;;;;;;;;;;;;23.56;57.14;99327.91;5066074;28;1930;-74
2023/09/22 01:15:33;;;;;;;;;;;;;;;23.57;57.26;99323.56;5065309;28;1971;-75
2023/09/22 01:18:00;;;;;;;;;;;;;;;23.53;57.29;99323.53;5065556;28;1938;-75
2023/09/22 01:20:27;;;;;;;;;;;;;;;23.55;57.17;99329.34;5064391;28;2123;-74
2023/09/22 01:22:54;;;;;;;;;;;;;;;23.56;57.17;99339.44;5067046;28;1911;-75
2023/09/22 01:25:21;;;;;;;;;;;;;;;23.53;57.37;99335.81;5064017;28;1989;-75
2023/09/22 01:27:47;;;;;;;;;;;;;;;23.53;57.27;99329.31;5058240;28;1935;-74
2023/09/22 01:30:15;;;;;;;;;;;;;;;23.52;57.26;99337.25;5060559;28;1885;-75
2023/09/22 01:32:42;;;;;;;;;;;;;;;23.53;57.19;99352.44;5064060;28;1987;-75
2023/09/22 01:35:08;;;;;;;;;;;;;;;23.53;57.15;99347.38;5064888;28;2036;-75
2023/09/22 01:37:36;;;;;;;;;;;;;;;23.54;57.36;99359.66;5062710;28;1913;-75
2023/09/22 01:40:03;;;;;;;;;;;;;;;23.54;57.33;99359.66;5048283;28;1882;-74
2023/09/22 01:42:29;;;;;;;;;;;;;;;23.52;57.31;99363.25;5044827;28;2102;-75
2023/09/22 01:44:56;;;;;;;;;;;;;;;23.54;57.27;99365.44;5067092;28;1890;-75
2023/09/22 01:47:22;;;;;;;;;;;;;;;23.54;57.54;99371.22;5065383;28;2005;-75
2023/09/22 01:49:49;;;;;;;;;;;;;;;23.53;57.23;99369.78;5064394;28;2016;-75
2023/09/22 01:52:15;;;;;;;;;;;;;;;23.50;57.22;99380.59;5065429;28;1841;-75
2023/09/22 01:54:41;;;;;;;;;;;;;;;23.43;57.58;99379.03;5063701;28;1923;-75
2023/09/22 01:57:08;;;;;;;;;;;;;;;23.44;57.44;99374.00;5065166;28;1918;-74
2023/09/22 01:59:34;;;;;;;;;;;;;;;23.44;57.53;99376.91;5062726;28;1861;-74
2023/09/22 02:02:01;;;;;;;;;;;;;;;23.41;57.59;99381.94;5063376;28;2014;-74
2023/09/22 02:04:30;;;;;;;;;;;;;;;23.44;57.95;99377.63;5064480;28;1936;-74
2023/09/22 02:06:57;;;;;;;;;;;;;;;23.48;57.84;99385.59;5065377;28;1954;-74
2023/09/22 02:09:24;;;;;;;;;;;;;;;23.47;58.03;99369.69;5065037;28;1883;-74
2023/09/22 02:11:54;;;;;;;;;;;;;;;23.46;57.90;99368.25;5080259;28;1847;-74
2023/09/22 02:14:21;;;;;;;;;;;;;;;23.46;57.97;99376.94;5065196;28;1747;-74
2023/09/22 02:16:47;;;;;;;;;;;;;;;23.47;57.81;99372.59;5065180;28;1968;-74
2023/09/22 02:19:13;;;;;;;;;;;;;;;23.47;57.96;99379.09;5065390;28;1891;-74
2023/09/22 02:21:40;;;;;;;;;;;;;;;23.44;57.74;99385.56;5063281;28;1877;-74
2023/09/22 02:24:07;;;;;;;;;;;;;;;23.43;58.00;99379.03;5061817;28;1756;-74
2023/09/22 02:26:33;;;;;;;;;;;;;;;23.45;57.94;99387.00;5064664;28;1734;-74
2023/09/22 02:29:01;;;;;;;;;;;;;;;23.47;58.05;99389.94;5064461;28;1783;-74
2023/09/22 02:31:28;;;;;;;;;;;;;;;23.46;57.75;99394.25;5064421;28;2252;-75
2023/09/22 02:33:54;;;;;;;;;;;;;;;23.45;57.83;99395.69;5062097;28;2023;-74
2023/09/22 02:36:21;;;;;;;;;;;;;;;23.46;57.91;99397.16;5068240;28;1772;-75
2023/09/22 02:38:47;;;;;;;;;;;;;;;23.46;58.00;99411.59;5065640;28;1953;-74
2023/09/22 02:41:14;;;;;;;;;;;;;;;23.46;57.86;99418.09;5063826;28;1904;-74
2023/09/22 02:43:40;;;;;;;;;;;;;;;23.46;57.92;99411.59;5061039;28;1797;-74
2023/09/22 02:46:07;;;;;;;;;;;;;;;23.44;57.85;99423.13;5064255;28;2001;-74
2023/09/22 02:48:33;;;;;;;;;;;;;;;23.47;57.89;99436.16;5062793;28;1888;-74
2023/09/22 02:51:00;;;;;;;;;;;;;;;23.44;57.97;99434.66;5062145;28;1859;-74
2023/09/22 02:53:26;;;;;;;;;;;;;;;23.45;58.04;99439.72;5066538;28;1870;-74
2023/09/22 02:55:52;;;;;;;;;;;;;;;23.45;58.15;99444.78;5063166;28;2037;-74
2023/09/22 02:58:23;;;;;;;;;;;;;;;23.42;58.37;99459.19;5062514;28;1985;-75
2023/09/22 03:00:50;;;;;;;;;;;;;;;23.42;58.11;99464.97;5060856;28;1914;-74
2023/09/22 03:03:17;;;;;;;;;;;;;;;23.42;58.29;99472.94;5066861;28;1927;-74
2023/09/22 03:05:44;;;;;;;;;;;;;;;23.41;58.63;99485.91;5063385;28;1884;-74
2023/09/22 03:08:10;;;;;;;;;;;;;;;23.35;58.70;99475.00;5063901;28;2122;-74
2023/09/22 03:10:38;;;;;;;;;;;;;;;23.33;59.09;99480.75;5062278;28;1936;-75
2023/09/22 03:13:04;;;;;;;;;;;;;;;23.34;58.83;99490.91;5064659;28;1845;-74
2023/09/22 03:15:30;;;;;;;;;;;;;;;23.33;58.84;99492.31;5062949;28;1943;-74
2023/09/22 03:17:57;;;;;;;;;;;;;;;23.28;59.27;99502.38;5064998;28;1910;-75
2023/09/22 03:20:23;;;;;;;;;;;;;;;23.29;59.68;99497.31;5063386;28;1930;-74
2023/09/22 03:22:50;;;;;;;;;;;;;;;23.31;59.33;99500.94;5066423;28;1948;-74
2023/09/22 03:25:17;;;;;;;;;;;;;;;23.32;59.58;99507.44;5064677;28;1954;-74
2023/09/22 03:27:43;;;;;;;;;;;;;;;23.35;59.28;99512.56;5060345;28;2062;-74
2023/09/22 03:30:12;;;;;;;;;;;;;;;23.37;59.37;99508.97;5062923;28;1932;-74
2023/09/22 03:32:41;;;;;;;;;;;;;;;23.30;59.64;99505.28;5064071;28;2274;-74
2023/09/22 03:35:11;;;;;;;;;;;;;;;23.21;60.25;99521.03;5063632;28;1828;-74
2023/09/22 03:37:40;;;;;;;;;;;;;;;23.25;60.33;99521.09;5064754;28;1969;-74
2023/09/22 03:40:13;;;;;;;;;;;;;;;23.28;60.19;99524.75;5060527;28;1829;-74
2023/09/22 03:42:40;;;;;;;;;;;;;;;23.29;60.35;99531.97;5061527;28;1888;-74
2023/09/22 03:45:07;;;;;;;;;;;;;;;23.23;60.45;99535.50;5059068;28;1924;-74
2023/09/22 03:47:34;;;;;;;;;;;;;;;23.23;60.53;99541.28;5057839;28;1918;-74
2023/09/22 03:50:00;;;;;;;;;;;;;;;23.25;60.51;99544.19;5061271;28;1817;-74
2023/09/22 03:52:28;;;;;;;;;;;;;;;23.26;60.44;99548.53;5059216;28;1955;-74
2023/09/22 03:54:54;;;;;;;;;;;;;;;23.31;60.37;99547.16;5061042;28;1827;-74
2023/09/22 03:57:21;;;;;;;;;;;;;;;23.33;60.24;99552.25;5061706;28;1994;-74
2023/09/22 03:59:48;;;;;;;;;;;;;;;23.32;60.33;99557.28;5062325;28;2063;-76
2023/09/22 04:02:15;;;;;;;;;;;;;;;23.29;60.28;99547.13;5061158;28;1878;-75
2023/09/22 04:04:41;;;;;;;;;;;;;;;23.24;60.79;99542.72;5062928;28;1854;-77
2023/09/22 04:07:08;;;;;;;;;;;;;;;23.15;61.14;99541.16;5061048;28;1974;-76
2023/09/22 04:09:34;;;;;;;;;;;;;;;23.24;60.83;99547.78;5063917;28;1842;-76
2023/09/22 04:12:01;;;;;;;;;;;;;;;23.22;60.76;99542.69;5063016;28;1916;-74
2023/09/22 04:14:27;;;;;;;;;;;;;;;23.24;60.66;99542.00;5062289;28;2096;-75
2023/09/22 04:16:54;;;;;;;;;;;;;;;23.26;60.67;99542.03;5061827;28;2387;-75
2023/09/22 04:19:21;;;;;;;;;;;;;;;23.24;60.65;99536.97;5062981;28;1913;-75
2023/09/22 04:21:49;;;;;;;;;;;;;;;23.22;60.60;99534.03;5058897;28;1755;-76
2023/09/22 04:24:20;;;;;;;;;;;;;;;23.18;60.72;99519.53;5065912;28;1945;-76
2023/09/22 04:26:48;;;;;;;;;;;;;;;23.18;60.95;99511.63;5060944;28;2038;-76
2023/09/22 04:29:14;;;;;;;;;;;;;;;23.18;61.16;99500.06;5063872;28;1868;-75
2023/09/22 04:31:42;;;;;;;;;;;;;;;23.16;61.15;99487.78;5060940;28;1614;-76
2023/09/22 04:34:09;;;;;;;;;;;;;;;23.18;61.14;99482.00;5062941;28;1992;-76
2023/09/22 04:36:36;;;;;;;;;;;;;;;23.17;60.97;99492.09;5070139;28;1710;-75
2023/09/22 04:39:02;;;;;;;;;;;;;;;23.19;61.26;99532.56;5066138;28;1910;-76
2023/09/22 04:41:29;;;;;;;;;;;;;;;23.21;61.00;99561.47;5064729;28;1944;-75
2023/09/22 04:43:56;;;;;;;;;;;;;;;23.24;60.88;99553.56;5061703;28;1954;-73
2023/09/22 04:46:22;;;;;;;;;;;;;;;23.22;60.85;99545.59;5065838;28;1935;-75
2023/09/22 04:48:49;;;;;;;;;;;;;;;23.20;61.15;99554.22;5063093;28;1964;-76
2023/09/22 04:51:15;;;;;;;;;;;;;;;23.05;61.73;99549.69;5063574;28;2367;-82
2023/09/22 04:53:42;;;;;;;;;;;;;;;22.86;62.04;99540.00;5062566;28;1909;-77
2023/09/22 04:56:09;;;;;;;;;;;;;;;22.67;62.89;99524.56;5069402;28;1820;-79
2023/09/22 04:58:38;;;;;;;;;;;;;;;22.47;64.01;99534.34;5066222;28;2079;-78
2023/09/22 05:01:04;;;;;;;;;;;;;;;22.44;64.22;99537.88;5066592;28;1947;-79
2023/09/22 05:03:31;;;;;;;;;;;;;;;22.51;64.02;99530.78;5070011;28;1933;-78
2023/09/22 05:06:01;;;;;;;;;;;;;;;22.50;64.21;99524.28;5061440;28;1961;-78
2023/09/22 05:08:30;;;;;;;;;;;;;;;22.43;64.26;99525.63;5064955;28;2054;-79
2023/09/22 05:10:56;;;;;;;;;;;;;;;22.49;64.24;99531.47;5064869;28;1751;-78
2023/09/22 05:13:23;;;;;;;;;;;;;;;22.54;63.87;99558.22;5062158;28;2130;-78
2023/09/22 05:15:49;;;;;;;;;;;;;;;22.55;63.71;99566.19;5063999;28;1774;-79
2023/09/22 05:18:16;;;;;;;;;;;;;;;22.53;64.06;99586.34;5064106;28;2057;-86
2023/09/22 05:20:43;;;;;;;;;;;;;;;22.77;63.28;99596.88;5062582;28;2015;-79
2023/09/22 05:23:09;;;;;;;;;;;;;;;22.53;64.18;99597.19;5056670;28;2286;-76
2023/09/22 05:25:39;;;;;;;;;;;;;;;22.47;64.37;99594.19;5060395;28;2059;-76
2023/09/22 05:28:08;;;;;;;;;;;;;;;22.36;64.60;99602.66;5058846;28;2143;-79
2023/09/22 05:30:37;;;;;;;;;;;;;;;22.28;64.81;99596.00;5058911;28;1860;-76
2023/09/22 05:33:06;;;;;;;;;;;;;;;22.08;66.04;99591.31;5057879;28;1936;-76
2023/09/22 05:35:36;;;;;;;;;;;;;;;22.16;65.66;99593.59;5060028;28;1814;-79
2023/09/22 05:38:03;;;;;;;;;;;;;;;22.14;65.88;99594.28;5063304;28;1997;-79
2023/09/22 05:40:34;;;;;;;;;;;;;;;22.07;66.42;99589.81;5060526;28;1922;-78
2023/09/22 05:43:00;;;;;;;;;;;;;;;22.08;66.37;99602.09;5063514;28;2160;-79
2023/09/22 05:45:28;;;;;;;;;;;;;;;21.91;67.01;99624.81;5062134;28;1816;-81
2023/09/22 05:47:55;;;;;;;;;;;;;;;21.94;67.13;99637.13;5063426;28;2104;-84
2023/09/22 05:50:23;;;;;;;;;;;;;;;21.94;67.33;99645.78;5062033;28;1888;-76
2023/09/22 05:52:50;;;;;;;;;;;;;;;21.88;67.70;99639.91;5050248;28;2151;-76
2023/09/22 05:55:18;;;;;;;;;;;;;;;21.98;67.01;99622.78;5057451;28;2100;-75
2023/09/22 05:57:46;;;;;;;;;;;;;;;22.00;67.19;99631.50;5056651;28;1990;-76
2023/09/22 06:00:17;;;;;;;;;;;;;;;21.98;66.93;99651.63;5059679;28;3072;-75
2023/09/22 06:02:47;;;;;;;;;;;;;;;22.21;66.41;99666.50;5058187;28;2077;-82
2023/09/22 06:05:14;;;;;;;;;;;;;;;21.89;67.36;99667.28;5059946;28;2209;-81
2023/09/22 06:07:41;;;;;;;;;;;;;;;21.98;66.67;99657.38;5065103;28;1993;-82
2023/09/22 06:10:09;;;;;;;;;;;;;;;21.81;67.10;99650.56;5056998;28;2032;-83
2023/09/22 06:12:36;;;;;;;;;;;;;;;21.84;67.05;99657.09;5064428;28;2083;-86
2023/09/22 06:15:06;;;;;;;;;;;;;;;21.89;66.83;99673.03;5061724;28;2088;-83
2023/09/22 06:17:33;;;;;;;;;;;;;;;22.10;66.10;99692.22;5068308;28;1985;-82
2023/09/22 06:20:07;;;;;;;;;;;;;;;22.23;65.97;99687.47;5059172;28;2158;-82
2023/09/22 06:22:34;;;;;;;;;;;;;;;22.24;65.91;99686.06;5059239;28;1996;-79
2023/09/22 06:25:01;;;;;;;;;;;;;;;22.21;65.86;99669.38;5064861;28;1749;-77
2023/09/22 06:27:27;;;;;;;;;;;;;;;22.17;66.27;99667.13;5064265;28;1645;-76
2023/09/22 06:29:54;;;;;;;;;;;;;;;22.17;66.38;99667.88;5064088;28;2059;-75
2023/09/22 06:32:20;;;;;;;;;;;;;;;22.30;65.86;99683.28;5062332;28;1958;-75
2023/09/22 06:34:47;;;;;;;;;;;;;;;22.40;65.24;99694.28;5061624;28;1667;-76
2023/09/22 06:37:13;;;;;;;;;;;;;;;22.32;65.70;99688.38;5067293;28;1646;-76
2023/09/22 06:39:40;;;;;;;;;;;;;;;22.47;65.41;99692.25;5059479;28;1962;-76
2023/09/22 06:42:06;;;;;;;;;;;;;;;22.37;65.40;99704.31;5064932;28;1631;-76
2023/09/22 06:44:34;;;;;;;;;;;;;;;22.29;65.91;99702.03;5063325;28;2302;-75
2023/09/22 06:47:02;;;;;;;;;;;;;;;22.23;66.42;99704.78;5056902;28;2157;-76
2023/09/22 06:49:29;;;;;;;;;;;;;;;22.67;66.39;99691.91;5063561;28;2046;-75
2023/09/22 06:51:55;;;;;;;;;;;;;;;22.71;65.29;99701.38;5063954;28;2045;-81
2023/09/22 06:54:21;;;;;;;;;;;;;;;22.57;65.17;99696.06;5075443;28;1974;-79
2023/09/22 06:56:49;;;;;;;;;;;;;;;22.32;65.99;99703.50;5064530;28;1864;-77
2023/09/22 06:59:16;;;;;;;;;;;;;;;22.48;65.82;99719.69;5066448;28;1991;-78
2023/09/22 07:01:43;;;;;;;;;;;;;;;22.64;65.12;99730.81;5066569;28;1697;-78
2023/09/22 07:04:10;;;;;;;;;;;;;;;22.68;65.33;99725.13;5073127;28;2063;-79
2023/09/22 07:06:37;;;;;;;;;;;;;;;22.45;65.21;99724.69;5061452;28;3491;-83
2023/09/22 07:09:09;;;;;;;;;;;;;;;22.27;66.04;99733.69;5071355;28;1951;-74
2023/09/22 07:11:40;;;;;;;;;;;;;;;22.35;65.76;99739.63;5059275;28;2092;-76
2023/09/22 07:14:07;;;;;;;;;;;;;;;22.20;65.95;99746.50;5061623;28;1653;-73
2023/09/22 07:16:33;;;;;;;;;;;;;;;22.29;65.48;99750.31;5061242;28;2050;-74
2023/09/22 07:19:00;;;;;;;;;;;;;;;22.43;65.44;99758.53;5067434;28;2050;-75
2023/09/22 07:21:27;;;;;;;;;;;;;;;22.33;65.57;99759.03;5064368;28;1718;-77
2023/09/22 07:23:55;;;;;;;;;;;;;;;22.54;64.76;99757.28;5069453;28;1769;-74
2023/09/22 07:26:22;;;;;;;;;;;;;;;22.52;65.19;99746.47;5058706;28;2291;-75
2023/09/22 07:28:49;;;;;;;;;;;;;;;22.68;64.26;99751.81;5064654;28;2035;-78
2023/09/22 07:31:18;;;;;;;;;;;;;;;22.52;64.64;99749.34;5066634;28;1655;-82
2023/09/22 07:33:44;;;;;;;;;;;;;;;22.80;63.80;99763.56;5049067;28;1989;-76
2023/09/22 07:36:11;;;;;;;;;;;;;;;22.69;64.18;99792.94;5064904;28;2300;-75
2023/09/22 07:38:38;;;;;;;;;;;;;;;22.62;64.29;99791.34;5060221;28;2118;-77
2023/09/22 07:41:04;;;;;;;;;;;;;;;22.62;64.25;99782.69;5062267;28;2149;-75
2023/09/22 07:43:31;;;;;;;;;;;;;;;22.62;64.98;99776.94;5065363;28;1888;-76
2023/09/22 07:45:57;;;;;;;;;;;;;;;22.52;65.06;99777.47;5063661;28;2086;-78
2023/09/22 07:48:24;;;;;;;;;;;;;;;22.63;65.33;99778.38;5059818;28;2078;-74
2023/09/22 07:50:52;;;;;;;;;;;;;;;22.91;65.08;99778.94;5057011;28;2067;-74
2023/09/22 07:53:19;;;;;;;;;;;;;;;23.23;63.66;99788.91;5062996;28;2002;-76
2023/09/22 07:55:47;;;;;;;;;;;;;;;22.97;63.99;99799.25;5062049;28;1871;-75
2023/09/22 07:58:14;;;;;;;;;;;;;;;23.07;63.33;99809.56;5060461;28;1910;-76
2023/09/22 08:00:46;;;;;;;;;;;;;;;23.00;63.35;99818.09;5059406;28;1801;-71
2023/09/22 08:03:13;;;;;;;;;;;;;;;23.10;63.38;99828.38;5060324;28;1664;-73
2023/09/22 08:05:40;;;;;;;;;;;;;;;23.00;63.28;99826.78;5058545;28;2011;-74
2023/09/22 08:08:07;;;;;;;;;;;;;;;23.09;63.14;99816.13;5063038;28;1760;-74
2023/09/22 08:10:33;;;;;;;;;;;;;;;23.08;63.64;99814.63;5068289;28;1607;-71
2023/09/22 08:13:00;;;;;;;;;;;;;;;22.98;63.77;99809.38;5070273;28;2060;-73
2023/09/22 08:15:27;;;;;;;;;;;;;;;22.96;64.00;99820.88;5064478;28;2002;-73
2023/09/22 08:17:56;;;;;;;;;;;;;;;23.20;63.43;99819.91;5070621;28;2007;-75
2023/09/22 08:20:23;;;;;;;;;;;;;;;23.12;63.35;99822.66;5062507;28;2200;-80
2023/09/22 08:22:49;;;;;;;;;;;;;;;22.61;64.83;99825.25;5065145;28;2221;-76
2023/09/22 08:25:16;;;;;;;;;;;;;;;22.73;65.24;99827.66;5062171;28;2125;-75
2023/09/22 08:27:44;;;;;;;;;;;;;;;22.78;65.41;99832.81;5059874;28;1909;-76
2023/09/22 08:30:13;;;;;;;;;;;;;;;22.92;64.75;99825.84;5065673;28;2003;-78
2023/09/22 08:32:40;;;;;;;;;;;;;;;22.68;65.46;99826.13;5064180;28;1974;-80
2023/09/22 08:35:07;;;;;;;;;;;;;;;22.82;64.31;99829.28;5061585;28;2008;-80
2023/09/22 08:37:36;;;;;;;;;;;;;;;23.04;63.34;99837.66;5059792;28;2071;-89
2023/09/22 08:40:07;;;;;;;;;;;;;;;23.05;63.34;99852.84;5064529;28;2118;-88
2023/09/22 08:42:34;;;;;;;;;;;;;;;23.12;62.98;99848.63;5060402;28;2123;-88
2023/09/22 08:45:01;;;;;;;;;;;;;;;22.95;63.68;99847.56;5063077;28;2522;-88
2023/09/22 08:47:28;;;;;;;;;;;;;;;22.97;63.68;99856.25;5060936;28;2402;-79
2023/09/22 08:49:54;;;;;;;;;;;;;;;22.93;63.94;99851.16;5061363;28;2537;-77
2023/09/22 08:52:22;;;;;;;;;;;;;;;23.12;63.79;99854.41;5063353;28;2210;-79
2023/09/22 08:54:49;;;;;;;;;;;;;;;23.28;62.44;99860.50;5068591;28;1833;-81
2023/09/22 08:57:16;;;;;;;;;;;;;;;23.30;62.40;99871.38;5069805;28;1995;-83
2023/09/22 08:59:43;;;;;;;;;;;;;;;23.40;61.99;99866.47;5078444;28;1976;-83
2023/09/22 09:02:11;;;;;;;;;;;;;;;23.40;62.36;99878.03;5064846;28;2245;-85
2023/09/22 09:04:39;;;;;;;;;;;;;;;23.31;62.12;99882.19;5063899;28;2563;-82
2023/09/22 09:07:06;;;;;;;;;;;;;;;23.27;62.45;99881.41;5062113;28;3763;-77
2023/09/22 09:09:39;;;;;;;;;;;;;;;23.19;62.62;99881.97;5066475;28;2134;-91
2023/09/22 09:12:08;;;;;;;;;;;;;;;23.15;62.43;99887.66;5067243;28;1980;-79
2023/09/22 09:14:37;;;;;;;;;;;;;;;23.27;62.37;99892.94;5063447;28;2402;-83
2023/09/22 09:17:22;;;;;;;;;;;;;;;23.52;61.81;99894.84;5063599;28;2074;-81
2023/09/22 09:19:55;;;;;;;;;;;;;;;23.61;61.46;99907.28;5063663;28;2087;-90
2023/09/22 09:22:22;;;;;;;;;;;;;;;23.62;61.59;99908.78;5064072;28;2218;-87
2023/09/22 09:24:49;;;;;;;;;;;;;;;23.59;60.94;99915.94;5061536;28;2698;-88
2023/09/22 09:27:17;;;;;;;;;;;;;;;23.32;61.43;99917.59;5064436;28;2055;-88
2023/09/22 09:29:45;;;;;;;;;;;;;;;23.49;60.91;99915.75;5061586;28;2637;-91
2023/09/22 09:32:21;;;;;;;;;;;;;;;23.46;60.45;99914.25;5067784;28;2371;-89
2023/09/22 09:34:48;;;;;;;;;;;;;;;23.51;61.05;99933.13;5067197;28;2018;-82
2023/09/22 09:37:15;;;;;;;;;;;;;;;23.59;60.54;99925.34;5065483;28;2093;-90
2023/09/22 09:39:49;;;;;;;;;;;;;;;23.54;60.60;99926.69;5062398;28;2442;-83
2023/09/22 09:42:17;;;;;;;;;;;;;;;23.49;60.82;99930.22;5064688;28;2069;-84
2023/09/22 09:44:47;;;;;;;;;;;;;;;23.54;60.52;99926.69;5063504;28;2439;-88
2023/09/22 09:47:20;;;;;;;;;;;;;;;23.31;60.81;99928.41;5064895;28;1953;-81
2023/09/22 09:49:46;;;;;;;;;;;;;;;23.16;61.60;99929.59;5066097;28;2152;-79
2023/09/22 09:52:13;;;;;;;;;;;;;;;23.09;61.46;99933.75;5063044;28;2145;-79
2023/09/22 09:54:40;;;;;;;;;;;;;;;23.35;61.07;99925.63;5061491;28;2232;-80
2023/09/22 09:57:08;;;;;;;;;;;;;;;23.54;60.87;99925.97;5067217;28;2047;-80
2023/09/22 09:59:34;;;;;;;;;;;;;;;23.54;60.87;99946.19;5069307;28;2065;-86
2023/09/22 10:02:01;;;;;;;;;;;;;;;23.57;60.87;99936.13;5065708;28;2144;-86
2023/09/22 10:04:28;;;;;;;;;;;;;;;23.56;60.48;99934.66;5065598;28;1900;-86
2023/09/22 10:06:54;;;;;;;;;;;;;;;23.50;60.49;99926.63;5059703;28;1991;-86
2023/09/22 10:09:21;;;;;;;;;;;;;;;23.08;61.08;99932.28;5063783;28;1908;-76
2023/09/22 10:11:48;;;;;;;;;;;;;;;23.03;61.70;99931.47;5066386;28;1920;-75
2023/09/22 10:14:33;;;;;;;;;;;;;;;22.92;61.61;99924.72;5064108;28;2316;-77
2023/09/22 10:17:00;;;;;;;;;;;;;;;23.05;61.43;99928.63;5061739;28;2001;-77
2023/09/22 10:19:40;;;;;;;;;;;;;;;23.17;61.84;99925.97;5057141;28;2509;-79
2023/09/22 10:22:11;;;;;;;;;;;;;;;23.31;61.18;99928.41;5055776;28;2063;-79
2023/09/22 10:24:38;;;;;;;;;;;;;;;23.35;61.06;99922.72;5059909;28;2082;-80
2023/09/22 10:27:11;;;;;;;;;;;;;;;23.30;61.21;99918.31;5057612;28;1976;-81
2023/09/22 10:29:39;;;;;;;;;;;;;;;23.24;60.82;99918.19;5067312;28;2121;-83
2023/09/22 10:32:15;;;;;;;;;;;;;;;23.41;61.18;99925.75;5057764;28;2206;-90
2023/09/22 10:34:44;;;;;;;;;;;;;;;23.62;60.28;99926.13;5064265;28;2033;-86
2023/09/22 10:37:11;;;;;;;;;;;;;;;23.59;60.45;99910.91;5058073;28;2029;-85
2023/09/22 10:39:58;;;;;;;;;;;;;;;23.56;60.10;99905.78;5063698;28;2089;-88
2023/09/22 10:42:24;;;;;;;;;;;;;;;23.53;60.16;99918.72;5055165;28;2102;-89
2023/09/22 10:44:55;;;;;;;;;;;;;;;23.64;60.10;99929.03;5058394;28;2316;-83
2023/09/22 10:47:22;;;;;;;;;;;;;;;23.60;59.44;99929.69;5057914;28;1896;-75
2023/09/22 10:49:48;;;;;;;;;;;;;;;23.42;60.06;99932.97;5058947;28;1960;-76
2023/09/22 10:52:17;;;;;;;;;;;;;;;23.33;60.20;99931.34;5054322;28;2512;-77
2023/09/22 10:54:46;;;;;;;;;;;;;;;23.24;60.29;99929.72;5061809;28;2152;-74
2023/09/22 10:57:23;;;;;;;;;;;;;;;23.28;60.21;99909.59;5061324;28;1995;-82
2023/09/22 10:59:49;;;;;;;;;;;;;;;23.21;60.38;99905.84;5064005;28;2051;-77
2023/09/22 11:02:27;;;;;;;;;;;;;;;23.16;60.22;99901.44;5060511;28;2085;-79
2023/09/22 11:04:55;;;;;;;;;;;;;;;23.11;60.44;99899.91;5062813;28;1968;-79
2023/09/22 11:07:34;;;;;;;;;;;;;;;23.19;60.59;99899.31;5060787;28;2221;-82
2023/09/22 11:10:00;;;;;;;;;;;;;;;23.16;60.44;99894.94;5026489;28;2019;-82
2023/09/22 11:12:27;;;;;;;;;;;;;;;23.02;60.39;99891.75;5061828;28;2018;-75
2023/09/22 11:14:54;;;;;;;;;;;;;;;22.86;61.40;99889.97;5054940;28;2537;-76
2023/09/22 11:17:20;;;;;;;;;;;;;;;22.81;61.22;99902.84;5063957;28;2153;-76
2023/09/22 11:19:51;;;;;;;;;;;;;;;22.79;61.41;99899.91;5060440;28;1990;-76
2023/09/22 11:22:17;;;;;;;;;;;;;;;22.93;61.16;99903.09;5065530;28;2046;-77
2023/09/22 11:24:47;;;;;;;;;;;;;;;23.07;60.59;99904.84;5061418;28;2119;-76
2023/09/22 11:27:13;;;;;;;;;;;;;;;23.00;60.55;99918.44;5077264;28;2088;-77
2023/09/22 11:29:41;;;;;;;;;;;;;;;22.94;60.84;99916.09;5062080;28;2003;-74
2023/09/22 11:32:08;;;;;;;;;;;;;;;22.91;60.97;99922.53;5061421;28;2067;-74
2023/09/22 11:34:47;;;;;;;;;;;;;;;22.90;60.84;99921.06;5064300;28;1893;-75
2023/09/22 11:37:34;;;;;;;;;;;;;;;23.03;60.51;99916.31;5060969;28;2156;-77
2023/09/22 11:40:00;;;;;;;;;;;;;;;23.09;60.24;99925.09;5064477;28;1986;-78
2023/09/22 11:42:26;;;;;;;;;;;;;;;22.97;60.88;99942.88;5064112;28;2070;-74
2023/09/22 11:44:57;;;;;;;;;;;;;;;23.04;60.69;99947.38;5065010;28;2272;-74
2023/09/22 11:47:23;;;;;;;;;;;;;;;23.07;60.47;99959.72;5061876;28;2438;-76
2023/09/22 11:49:50;;;;;;;;;;;;;;;23.11;60.29;99951.13;5060164;28;2062;-76
2023/09/22 11:52:27;;;;;;;;;;;;;;;23.05;60.35;99959.66;5063250;28;1873;-76
2023/09/22 11:54:53;;;;;;;;;;;;;;;23.06;59.60;99958.22;5063846;28;2124;-72
2023/09/22 11:57:21;;;;;;;;;;;;;;;22.99;59.72;99952.31;5064387;28;2054;-75
2023/09/22 11:59:48;;;;;;;;;;;;;;;23.12;59.55;99947.53;5062934;28;1963;-74
2023/09/22 12:02:15;;;;;;;;;;;;;;;23.00;59.46;99953.06;5063312;28;2022;-72
2023/09/22 12:04:42;;;;;;;;;;;;;;;22.93;59.39;99960.09;5063534;28;2003;-72
2023/09/22 12:07:08;;;;;;;;;;;;;;;22.73;60.09;99954.63;5055360;28;3442;-77
2023/09/22 12:09:35;;;;;;;;;;;;;;;22.69;59.58;99954.53;5061607;28;3464;-82
2023/09/22 12:12:01;;;;;;;;;;;;;;;23.17;60.20;99954.13;5065732;28;2344;-83
2023/09/22 12:14:28;;;;;;;;;;;;;;;23.34;58.84;99958.81;5063376;28;2184;-84
2023/09/22 12:16:55;;;;;;;;;;;;;;;23.28;58.21;99960.84;5062993;28;2112;-76
2023/09/22 12:19:24;;;;;;;;;;;;;;;23.07;58.92;99969.09;5061429;28;2076;-74
2023/09/22 12:21:51;;;;;;;;;;;;;;;23.30;58.64;99984.00;5062735;28;2223;-73
2023/09/22 12:24:18;;;;;;;;;;;;;;;23.35;57.84;99991.31;5064284;28;2010;-75
2023/09/22 12:26:44;;;;;;;;;;;;;;;23.35;57.98;99997.84;5063073;28;2150;-74
2023/09/22 12:29:13;;;;;;;;;;;;;;;23.30;57.50;99996.28;5062519;28;3662;-75
2023/09/22 12:31:40;;;;;;;;;;;;;;;23.38;58.48;100008.00;5061212;28;3767;-78
2023/09/22 12:34:06;;;;;;;;;;;;;;;23.30;57.95;100019.41;5060417;28;3867;-78
2023/09/22 12:36:33;;;;;;;;;;;;;;;23.49;57.52;100016.88;5064152;28;3056;-81
2023/09/22 12:38:59;;;;;;;;;;;;;;;23.61;57.19;100012.06;5063494;28;2105;-80
2023/09/22 12:41:25;;;;;;;;;;;;;;;23.31;57.19;100009.28;5057214;28;2137;-77
2023/09/22 12:43:52;;;;;;;;;;;;;;;23.30;57.31;100010.72;5058646;28;2129;-77
2023/09/22 12:46:18;;;;;;;;;;;;;;;23.41;57.37;100000.84;5073990;28;2130;-80
2023/09/22 12:48:45;;;;;;;;;;;;;;;23.38;57.38;100001.50;5063920;28;2203;-79
2023/09/22 12:51:11;;;;;;;;;;;;;;;23.36;57.25;99998.56;5060592;28;2183;-80
2023/09/22 12:53:38;;;;;;;;;;;;;;;23.49;56.86;99993.78;5061081;28;2116;-83
2023/09/22 12:56:05;;;;;;;;;;;;;;;23.43;56.74;99991.47;5058926;28;2190;-79
2023/09/22 12:58:31;;;;;;;;;;;;;;;23.48;56.68;99998.06;5065924;28;2209;-75
2023/09/22 13:00:58;;;;;;;;;;;;;;;23.33;56.51;99988.41;5062677;28;2232;-76